Time,TemperatureF,DewpointF,PressureIn,WindDirection,WindDirectionDegrees,WindSpeedMPH,WindSpeedGustMPH,Humidity,HourlyPrecipIn,Conditions,Clouds,dailyrainin,SoftwareType,DateUTC
2013-06-17 00:02:00,73.0,-99.9,-100.00,WNW,290,35.0,45.0,-999,-99.99,,,-99.99,,2013-06-17 07:02:00,
2013-06-17 00:12:00,73.0,-99.9,-100.00,WNW,290,35.0,45.0,-999,-99.99,,,-99.99,,2013-06-17 07:12:00,
2013-06-17 01:02:00,71.0,-99.9,-100.00,WNW,303,27.0,36.0,-999,-99.99,,,-99.99,,2013-06-17 08:02:00,
2013-06-17 01:12:00,71.0,-99.9,-100.00,WNW,303,27.0,36.0,-999,-99.99,,,-99.99,,2013-06-17 08:12:00,
2013-06-17 02:02:00,71.0,-99.9,-100.00,NW,309,17.0,27.0,-999,-99.99,,,-99.99,,2013-06-17 09:02:00,
2013-06-17 02:12:00,71.0,-99.9,-100.00,NW,309,17.0,27.0,-999,-99.99,,,-99.99,,2013-06-17 09:12:00,
2013-06-17 03:02:00,69.0,-99.9,-100.00,WNW,301,21.0,29.0,-999,-99.99,,,-99.99,,2013-06-17 10:02:00,
2013-06-17 03:12:00,69.0,-99.9,-100.00,WNW,301,21.0,29.0,-999,-99.99,,,-99.99,,2013-06-17 10:12:00,
2013-06-17 04:02:00,67.0,-99.9,-100.00,WSW,250,14.0,18.0,-999,-99.99,,,-99.99,,2013-06-17 11:02:00,
2013-06-17 04:12:00,67.0,-99.9,-100.00,WSW,250,14.0,18.0,-999,-99.99,,,-99.99,,2013-06-17 11:12:00,
2013-06-17 05:02:00,66.0,-99.9,-100.00,WSW,252,15.0,21.0,-999,-99.99,,,-99.99,,2013-06-17 12:02:00,
2013-06-17 05:12:00,66.0,-99.9,-100.00,WSW,252,15.0,21.0,-999,-99.99,,,-99.99,,2013-06-17 12:12:00,
2013-06-17 06:02:00,65.0,-99.9,-100.00,South,172,5.0,8.0,-999,-99.99,,,-99.99,,2013-06-17 13:02:00,
2013-06-17 06:12:00,65.0,-99.9,-100.00,South,172,5.0,8.0,-999,-99.99,,,-99.99,,2013-06-17 13:12:00,
2013-06-17 07:02:00,66.0,-99.9,-100.00,NW,305,9.0,15.0,-999,-99.99,,,-99.99,,2013-06-17 14:02:00,
2013-06-17 07:12:00,66.0,-99.9,-100.00,NW,305,9.0,15.0,-999,-99.99,,,-99.99,,2013-06-17 14:12:00,
2013-06-17 08:02:00,67.0,-99.9,-100.00,West,277,6.0,12.0,-999,-99.99,,,-99.99,,2013-06-17 15:02:00,
2013-06-17 08:12:00,67.0,-99.9,-100.00,West,277,6.0,12.0,-999,-99.99,,,-99.99,,2013-06-17 15:12:00,
2013-06-17 09:02:00,67.0,-99.9,-100.00,NW,309,3.0,5.0,-999,-99.99,,,-99.99,,2013-06-17 16:02:00,
2013-06-17 09:12:00,67.0,-99.9,-100.00,NW,309,3.0,5.0,-999,-99.99,,,-99.99,,2013-06-17 16:12:00,
2013-06-17 10:02:00,73.0,-99.9,-100.00,SSW,195,3.0,7.0,-999,-99.99,,,-99.99,,2013-06-17 17:02:00,
2013-06-17 10:12:00,73.0,-99.9,-100.00,SSW,195,3.0,7.0,-999,-99.99,,,-99.99,,2013-06-17 17:12:00,
2013-06-17 11:00:00,77.0,-99.9,-100.00,SW,221,10.0,20.0,-999,-99.99,,,-99.99,,2013-06-17 18:00:00,
2013-06-17 11:02:00,76.0,-99.9,-100.00,SSW,208,8.0,14.0,-999,-99.99,,,-99.99,,2013-06-17 18:02:00,
2013-06-17 11:12:00,76.0,-99.9,-100.00,SSW,208,8.0,14.0,-999,-99.99,,,-99.99,,2013-06-17 18:12:00,
2013-06-17 13:02:00,80.0,-99.9,-100.00,SSW,211,9.0,22.0,-999,-99.99,,,-99.99,,2013-06-17 20:02:00,
2013-06-17 13:11:00,80.0,-99.9,-100.00,SSW,211,9.0,22.0,-999,-99.99,,,-99.99,,2013-06-17 20:11:00,
2013-06-17 14:02:00,80.0,-99.9,-100.00,SW,224,13.0,21.0,-999,-99.99,,,-99.99,,2013-06-17 21:02:00,
2013-06-17 14:12:00,80.0,-99.9,-100.00,SW,224,13.0,21.0,-999,-99.99,,,-99.99,,2013-06-17 21:12:00,
2013-06-17 15:01:00,83.0,-99.9,-100.00,SW,231,13.0,22.0,-999,-99.99,,,-99.99,,2013-06-17 22:01:00,
2013-06-17 15:12:00,83.0,-99.9,-100.00,SW,231,13.0,22.0,-999,-99.99,,,-99.99,,2013-06-17 22:12:00,
2013-06-17 16:02:00,86.0,-99.9,-100.00,WSW,254,8.0,20.0,-999,-99.99,,,-99.99,,2013-06-17 23:02:00,
2013-06-17 16:12:00,86.0,-99.9,-100.00,WSW,254,8.0,20.0,-999,-99.99,,,-99.99,,2013-06-17 23:12:00,
2013-06-17 17:02:00,84.0,-99.9,-100.00,SW,234,16.0,23.0,-999,-99.99,,,-99.99,,2013-06-18 00:02:00,
2013-06-17 17:12:00,84.0,-99.9,-100.00,SW,234,16.0,23.0,-999,-99.99,,,-99.99,,2013-06-18 00:12:00,
2013-06-17 18:02:00,85.0,-99.9,-100.00,WSW,254,12.0,23.0,-999,-99.99,,,-99.99,,2013-06-18 01:02:00,
2013-06-17 18:12:00,85.0,-99.9,-100.00,WSW,254,12.0,23.0,-999,-99.99,,,-99.99,,2013-06-18 01:12:00,
2013-06-17 19:02:00,82.0,-99.9,-100.00,WSW,238,12.0,16.0,-999,-99.99,,,-99.99,,2013-06-18 02:02:00,
2013-06-17 19:12:00,82.0,-99.9,-100.00,WSW,238,12.0,16.0,-999,-99.99,,,-99.99,,2013-06-18 02:12:00,
2013-06-17 20:02:00,74.0,-99.9,-100.00,WNW,284,9.0,13.0,-999,-99.99,,,-99.99,,2013-06-18 03:02:00,
2013-06-17 20:12:00,74.0,-99.9,-100.00,WNW,284,9.0,13.0,-999,-99.99,,,-99.99,,2013-06-18 03:12:00,
2013-06-17 21:02:00,68.0,-99.9,-100.00,North,350,6.0,12.0,-999,-99.99,,,-99.99,,2013-06-18 04:02:00,
2013-06-17 21:12:00,68.0,-99.9,-100.00,North,350,6.0,12.0,-999,-99.99,,,-99.99,,2013-06-18 04:12:00,
2013-06-17 22:03:00,71.0,-99.9,-100.00,ENE,66,3.0,3.0,-999,-99.99,,,-99.99,,2013-06-18 05:03:00,
2013-06-17 22:12:00,71.0,-99.9,-100.00,ENE,66,3.0,3.0,-999,-99.99,,,-99.99,,2013-06-18 05:12:00,
2013-06-17 23:02:00,67.0,-99.9,-100.00,NW,316,18.0,24.0,-999,-99.99,,,-99.99,,2013-06-18 06:02:00,
2013-06-17 23:12:00,67.0,-99.9,-100.00,NW,316,18.0,24.0,-999,-99.99,,,-99.99,,2013-06-18 06:12:00,